Time;durP1;ratioP1;P1;durP2;ratioP2;P2;SDS_P1;SDS_P2;PMS_P1;PMS_P2;Temp;Humidity;BMP_temperature;BMP_pressure;BME280_temperature;BME280_humidity;BME280_pressure;Samples;Min_cycle;Max_cycle;Signal;HPM_P1;HPM_P2
2021/03/25 00:00:22;;;;;;;113.43;54.87;;;;;;;4.84;73.40;100846.13;115359;1200;23544;-60
2021/03/25 00:03:15;;;;;;;133.50;63.43;;;;;;;4.83;73.42;100833.48;115299;1200;25756;-60
2021/03/25 00:05:45;;;;;;;153.87;74.20;;;;;;;4.85;73.48;100845.69;115553;1200;23315;-58
2021/03/25 00:08:17;;;;;;;147.67;74.10;;;;;;;4.84;73.59;100841.34;115686;1200;23118;-58
2021/03/25 00:10:46;;;;;;;141.05;69.20;;;;;;;4.86;73.53;100838.17;115268;1200;23109;-56
2021/03/25 00:13:16;;;;;;;122.75;60.50;;;;;;;4.87;73.61;100839.72;115476;1201;23237;-57
2021/03/25 00:15:46;;;;;;;135.93;67.00;;;;;;;4.87;73.69;100831.42;115190;1199;23104;-58
2021/03/25 00:18:16;;;;;;;128.60;62.90;;;;;;;4.86;73.59;100838.94;115347;1199;27264;-57
2021/03/25 00:20:45;;;;;;;134.15;63.55;;;;;;;4.84;73.76;100837.83;115366;1200;23103;-56
2021/03/25 00:23:15;;;;;;;139.30;64.20;;;;;;;4.82;73.80;100835.46;115327;1199;23121;-57
2021/03/25 00:25:44;;;;;;;115.75;56.10;;;;;;;4.81;73.69;100835.89;115371;1200;23247;-58
2021/03/25 00:28:15;;;;;;;128.57;58.87;;;;;;;4.81;73.84;100831.15;115199;1200;26298;-58
2021/03/25 00:30:44;;;;;;;120.80;58.00;;;;;;;4.81;73.95;100830.36;115422;1200;23143;-60
2021/03/25 00:33:15;;;;;;;106.77;51.00;;;;;;;4.81;73.90;100833.13;115339;1200;23095;-56
2021/03/25 00:35:44;;;;;;;101.20;48.10;;;;;;;4.79;73.92;100827.24;115074;1202;23138;-54
2021/03/25 00:38:14;;;;;;;105.30;48.70;;;;;;;4.75;74.05;100829.30;115103;1202;23125;-59
2021/03/25 00:40:43;;;;;;;101.93;47.98;;;;;;;4.72;73.91;100832.91;115022;1202;23257;-59
2021/03/25 00:43:13;;;;;;;103.30;49.70;;;;;;;4.72;74.16;100828.16;115042;1202;23137;-58
2021/03/25 00:45:44;;;;;;;103.23;47.07;;;;;;;4.73;73.96;100828.95;115033;1200;23127;-58
2021/03/25 00:48:14;;;;;;;99.80;45.37;;;;;;;4.73;74.01;100826.97;115221;1199;23167;-59
2021/03/25 00:50:46;;;;;;;96.77;43.53;;;;;;;4.73;74.25;100826.97;115261;1202;23105;-59
2021/03/25 00:53:18;;;;;;;109.20;50.50;;;;;;;4.74;74.17;100822.19;115456;1199;23119;-60
2021/03/25 00:55:46;;;;;;;107.97;47.83;;;;;;;4.72;74.24;100821.84;115293;1198;23184;-61
2021/03/25 00:58:15;;;;;;;108.20;49.65;;;;;;;4.74;74.28;100820.22;115331;1199;26374;-59
2021/03/25 01:00:46;;;;;;;105.10;49.10;;;;;;;4.75;74.42;100812.70;115252;1200;26442;-59
2021/03/25 01:03:18;;;;;;;103.10;46.70;;;;;;;4.75;74.27;100801.64;115309;1201;23115;-58
2021/03/25 01:05:47;;;;;;;98.70;45.05;;;;;;;4.75;74.28;100810.73;115304;1200;23089;-60
2021/03/25 01:08:32;;;;;;;90.20;44.85;;;;;;;4.76;74.39;100809.50;115311;1200;23321;-59
2021/03/25 01:11:05;;;;;;;94.97;45.53;;;;;;;4.78;74.54;100803.54;115392;1200;27066;-59
2021/03/25 01:13:37;;;;;;;101.05;44.40;;;;;;;4.78;74.37;100804.33;115332;1198;25971;-58
2021/03/25 01:16:09;;;;;;;91.80;43.10;;;;;;;4.78;74.26;100793.27;115406;1199;23206;-58
2021/03/25 01:18:38;;;;;;;92.05;44.40;;;;;;;4.78;74.47;100798.01;115386;1199;24794;-59
2021/03/25 01:21:08;;;;;;;96.95;42.70;;;;;;;4.78;74.33;100800.77;115445;1199;26054;-59
2021/03/25 01:23:38;;;;;;;94.60;42.37;;;;;;;4.78;74.40;100804.33;115454;1199;23269;-61
2021/03/25 01:26:13;;;;;;;86.93;42.27;;;;;;;4.78;74.48;100795.24;115309;1200;23112;-58
2021/03/25 01:28:43;;;;;;;93.45;42.25;;;;;;;4.80;74.47;100795.63;115379;1198;23095;-58
2021/03/25 01:31:12;;;;;;;91.03;41.10;;;;;;;4.80;74.29;100782.55;115457;1200;24558;-58
2021/03/25 01:33:41;;;;;;;85.40;40.33;;;;;;;4.83;74.48;100791.98;115407;1199;24741;-59
2021/03/25 01:36:11;;;;;;;90.25;41.15;;;;;;;4.79;74.44;100794.05;115675;1200;27654;-58
2021/03/25 01:38:41;;;;;;;91.73;43.20;;;;;;;4.80;74.40;100790.85;115426;1199;23229;-60
2021/03/25 01:41:11;;;;;;;96.40;42.43;;;;;;;4.80;74.34;100792.86;115439;1199;26048;-60
2021/03/25 01:43:42;;;;;;;93.90;43.30;;;;;;;4.80;74.26;100793.62;115346;1201;23112;-61
2021/03/25 01:46:21;;;;;;;95.93;42.07;;;;;;;4.81;74.35;100792.42;115351;1199;23106;-60
2021/03/25 01:48:52;;;;;;;;;;;;;;;4.83;74.61;100780.92;115384;1205;26941;-61
2021/03/25 01:51:39;;;;;;;87.00;40.40;;;;;;;4.82;74.47;100791.20;115333;1200;24475;-59
2021/03/25 01:54:47;;;;;;;94.70;42.50;;;;;;;4.83;74.44;100791.98;115305;1200;24739;-60
2021/03/25 01:57:39;;;;;;;92.10;40.30;;;;;;;4.83;74.50;100790.01;115248;1200;23514;-59
2021/03/25 02:00:15;;;;;;;92.00;41.10;;;;;;;4.84;74.57;100786.02;115292;1205;23108;-61
2021/03/25 02:02:57;;;;;;;94.30;43.30;;;;;;;4.85;74.71;100781.28;115223;1205;23147;-58
2021/03/25 02:05:32;;;;;;;90.75;41.60;;;;;;;4.84;74.50;100780.48;115128;1201;23108;-59
2021/03/25 02:08:09;;;;;;;95.77;42.13;;;;;;;4.84;74.63;100782.50;115497;1200;23168;-58
2021/03/25 02:10:49;;;;;;;95.25;43.20;;;;;;;4.81;74.46;100775.83;115223;1203;23243;-59
2021/03/25 02:13:26;;;;;;;93.10;42.90;;;;;;;4.81;74.55;100784.13;115213;1200;23192;-59
2021/03/25 02:16:01;;;;;;;94.37;42.57;;;;;;;4.83;74.71;100783.69;115181;1202;26385;-58
2021/03/25 02:18:39;;;;;;;102.65;44.75;;;;;;;4.81;74.85;100773.06;115283;1200;23127;-59
2021/03/25 02:21:50;;;;;;;91.70;42.95;;;;;;;4.81;74.71;100783.34;115213;1204;26249;-60
2021/03/25 02:24:47;;;;;;;98.83;46.63;;;;;;;4.79;74.68;100781.00;115198;1204;23130;-58
2021/03/25 02:27:46;;;;;;;97.00;42.10;;;;;;;4.78;74.62;100773.11;115126;1200;23115;-61
2021/03/25 02:30:19;;;;;;;94.27;44.33;;;;;;;4.79;74.64;100771.92;114842;1203;24754;-58
2021/03/25 02:32:53;;;;;;;97.00;43.30;;;;;;;4.78;74.74;100768.37;114864;1202;24773;-58
2021/03/25 02:35:37;;;;;;;96.20;44.90;;;;;;;4.78;74.49;100773.11;115241;1200;23117;-58
2021/03/25 02:38:11;;;;;;;95.50;44.00;;;;;;;4.78;74.50;100775.88;115153;1200;23144;-59
2021/03/25 02:40:45;;;;;;;106.60;48.10;;;;;;;4.76;74.69;100773.55;115194;1200;23173;-61
2021/03/25 02:43:17;;;;;;;110.00;49.40;;;;;;;4.72;74.60;100772.05;115434;1200;23273;-61
2021/03/25 02:45:55;;;;;;;97.23;47.27;;;;;;;4.70;74.85;100757.88;115288;1200;23129;-61
2021/03/25 02:48:26;;;;;;;100.90;48.30;;;;;;;4.70;74.86;100755.11;115231;1200;23115;-60
2021/03/25 02:51:01;;;;;;;93.00;44.10;;;;;;;4.70;74.83;100766.17;115146;1200;26009;-58
2021/03/25 02:53:39;;;;;;;94.60;44.67;;;;;;;4.71;74.99;100757.47;115151;1200;23260;-60
2021/03/25 02:56:13;;;;;;;89.25;42.95;;;;;;;4.71;74.83;100754.70;115191;1205;23126;-59
2021/03/25 02:58:46;;;;;;;94.35;42.40;;;;;;;4.69;74.86;100751.59;115192;1200;23210;-59
2021/03/25 03:01:18;;;;;;;98.40;43.90;;;;;;;4.69;74.93;100753.56;115234;1200;27338;-59
2021/03/25 03:03:51;;;;;;;98.00;45.10;;;;;;;4.68;74.83;100751.99;115205;1200;23109;-59
2021/03/25 03:06:28;;;;;;;97.60;44.55;;;;;;;4.68;74.86;100754.76;115313;1205;23115;-61
2021/03/25 03:08:59;;;;;;;93.07;41.93;;;;;;;4.66;75.06;100752.42;115340;1200;23098;-60
2021/03/25 03:11:33;;;;;;;87.20;43.40;;;;;;;4.67;75.00;100756.77;115398;1202;23126;-59
2021/03/25 03:14:05;;;;;;;86.80;40.73;;;;;;;4.67;74.99;100751.23;115160;1200;24562;-61
2021/03/25 03:16:42;;;;;;;90.23;41.33;;;;;;;4.65;74.96;100741.80;115279;1202;23092;-60
2021/03/25 03:19:17;;;;;;;89.83;41.80;;;;;;;4.68;74.90;100751.99;115324;1200;23101;-60
2021/03/25 03:21:51;;;;;;;88.55;42.35;;;;;;;4.69;74.92;100745.27;115408;1200;23150;-60
2021/03/25 03:24:21;;;;;;;86.20;40.10;;;;;;;4.68;75.06;100736.19;115472;1200;24756;-60
2021/03/25 03:26:54;;;;;;;90.28;40.60;;;;;;;4.69;75.00;100742.50;115409;1199;27236;-59
2021/03/25 03:29:26;;;;;;;87.85;40.70;;;;;;;4.64;74.86;100745.75;115427;1202;23215;-58
2021/03/25 03:32:04;;;;;;;90.10;39.80;;;;;;;4.62;74.89;100743.42;115378;1199;23110;-61
2021/03/25 03:34:37;;;;;;;83.70;40.53;;;;;;;4.62;75.25;100731.58;118698;1199;24070;-61
2021/03/25 03:37:10;;;;;;;90.05;41.15;;;;;;;4.62;75.39;100737.11;117456;1198;26508;-60
2021/03/25 03:39:40;;;;;;;93.10;41.47;;;;;;;4.62;75.35;100739.88;115319;1202;25699;-60
2021/03/25 03:42:13;;;;;;;92.80;42.70;;;;;;;4.58;75.06;100739.17;115466;1200;27064;-57
2021/03/25 03:44:45;;;;;;;88.30;42.20;;;;;;;4.56;75.19;100738.81;115274;1200;23247;-59
2021/03/25 03:47:19;;;;;;;90.40;42.10;;;;;;;4.58;75.46;100742.72;115185;1198;23258;-58
2021/03/25 03:49:51;;;;;;;84.87;40.37;;;;;;;4.57;75.27;100749.44;115272;1199;23241;-60
2021/03/25 03:52:25;;;;;;;92.67;43.10;;;;;;;4.56;75.36;100744.34;115077;1200;25949;-58
2021/03/25 03:54:55;;;;;;;94.07;44.17;;;;;;;4.53;75.46;100737.67;115054;1200;23123;-61
2021/03/25 03:57:35;;;;;;;96.90;42.35;;;;;;;4.54;75.51;100742.02;115388;1199;23094;-61
2021/03/25 04:00:11;;;;;;;91.00;42.25;;;;;;;4.52;75.37;100744.42;115444;1202;23122;-60
2021/03/25 04:02:42;;;;;;;97.10;45.95;;;;;;;4.54;75.53;100739.25;115387;1202;23104;-59
2021/03/25 04:05:18;;;;;;;109.10;50.30;;;;;;;4.53;75.60;100739.69;115363;1198;23119;-59
2021/03/25 04:07:52;;;;;;;120.50;56.80;;;;;;;4.57;75.78;100743.91;115341;1200;23109;-57
2021/03/25 04:10:27;;;;;;;141.57;63.70;;;;;;;4.57;75.63;100737.63;115336;1202;23109;-59
2021/03/25 04:13:00;;;;;;;136.30;61.00;;;;;;;4.58;75.63;100741.94;115418;1199;23482;-59
2021/03/25 04:15:31;;;;;;;131.00;59.70;;;;;;;4.58;75.62;100744.70;115291;1200;23106;-58
2021/03/25 04:18:06;;;;;;;115.45;55.10;;;;;;;4.54;75.59;100746.75;115330;1200;25988;-58
2021/03/25 04:20:39;;;;;;;127.33;58.73;;;;;;;4.54;75.56;100749.52;115254;1199;23129;-60
2021/03/25 04:23:11;;;;;;;125.03;57.90;;;;;;;4.55;75.71;100742.80;115385;1202;25866;-61
2021/03/25 04:25:42;;;;;;;131.43;61.70;;;;;;;4.52;75.74;100741.66;115426;1199;23070;-61
2021/03/25 04:28:16;;;;;;;126.05;58.65;;;;;;;4.54;75.84;100746.75;115479;1197;23275;-58
2021/03/25 04:30:51;;;;;;;122.27;56.77;;;;;;;4.55;75.63;100738.02;115336;1200;23231;-59
2021/03/25 04:33:22;;;;;;;130.60;61.65;;;;;;;4.55;75.75;100745.56;115244;1200;23099;-59
2021/03/25 04:35:52;;;;;;;130.53;62.00;;;;;;;4.56;75.73;100744.34;115468;1199;27457;-61
2021/03/25 04:38:25;;;;;;;126.10;60.25;;;;;;;4.57;75.85;100749.44;115360;1201;23099;-59
2021/03/25 04:40:57;;;;;;;124.75;56.75;;;;;;;4.58;75.60;100750.22;115475;1200;23129;-58
2021/03/25 04:43:27;;;;;;;109.70;50.05;;;;;;;4.59;75.66;100755.33;115445;1199;26213;-58
2021/03/25 04:46:01;;;;;;;107.00;51.40;;;;;;;4.60;75.59;100758.88;115628;1200;23318;-61
2021/03/25 04:48:37;;;;;;;112.55;50.10;;;;;;;4.61;75.62;100760.45;115307;1200;23119;-58
2021/03/25 04:51:10;;;;;;;92.13;46.03;;;;;;;4.60;75.80;100756.11;115407;1198;23115;-58
2021/03/25 04:53:41;;;;;;;96.83;46.47;;;;;;;4.59;75.49;100740.73;115296;1202;23361;-61
2021/03/25 04:56:13;;;;;;;90.50;42.80;;;;;;;4.59;75.46;100751.80;115282;1202;23098;-58
2021/03/25 04:58:46;;;;;;;89.57;41.87;;;;;;;4.61;75.50;100754.92;115372;1200;23216;-58
2021/03/25 05:01:18;;;;;;;87.50;42.90;;;;;;;4.58;75.63;100753.78;115292;1199;23089;-59
2021/03/25 05:03:48;;;;;;;101.60;43.37;;;;;;;4.59;75.57;100754.56;115283;1200;23237;-59
2021/03/25 05:06:20;;;;;;;98.45;45.33;;;;;;;4.57;75.57;100752.20;115372;1202;23088;-59
2021/03/25 05:08:53;;;;;;;98.80;47.03;;;;;;;4.57;75.57;100752.20;115314;1198;23106;-61
2021/03/25 05:11:24;;;;;;;89.20;43.37;;;;;;;4.59;75.83;100754.56;115310;1199;23095;-57
2021/03/25 05:13:57;;;;;;;93.90;45.70;;;;;;;4.60;75.69;100750.58;115222;1203;26393;-61
2021/03/25 05:16:38;;;;;;;103.25;47.35;;;;;;;4.61;75.72;100758.47;115306;1199;23109;-58
2021/03/25 05:19:16;;;;;;;92.57;42.63;;;;;;;4.60;75.57;100765.20;115281;1202;23096;-61
2021/03/25 05:21:50;;;;;;;114.15;53.05;;;;;;;4.57;75.83;100754.21;115384;1199;23244;-59
2021/03/25 05:24:29;;;;;;;105.00;50.30;;;;;;;4.54;75.77;100752.28;115428;1200;23212;-60
2021/03/25 05:27:03;;;;;;;100.47;49.60;;;;;;;4.52;75.84;100752.72;115469;1200;23096;-60
2021/03/25 05:29:33;;;;;;;104.47;49.00;;;;;;;4.53;75.88;100761.80;115413;1198;23132;-59
2021/03/25 05:32:03;;;;;;;98.95;47.35;;;;;;;4.51;75.74;100753.91;115827;1198;23170;-60
2021/03/25 05:34:34;;;;;;;98.50;48.15;;;;;;;4.49;75.93;100758.33;115423;1199;24574;-61
2021/03/25 05:37:04;;;;;;;107.15;46.65;;;;;;;4.48;75.95;100757.55;115421;1200;23123;-60
2021/03/25 05:39:34;;;;;;;101.25;45.85;;;;;;;4.51;75.80;100758.69;115390;1200;23244;-60
2021/03/25 05:42:15;;;;;;;96.37;44.77;;;;;;;4.52;75.78;100757.46;115427;1202;23125;-59
2021/03/25 05:45:25;;;;;;;94.75;43.95;;;;;;;4.54;75.77;100760.58;115360;1199;23103;-60
2021/03/25 05:48:34;;;;;;;90.45;41.55;;;;;;;4.53;75.71;100759.80;115290;1200;24574;-57
2021/03/25 05:51:12;;;;;;;89.47;40.87;;;;;;;4.55;75.84;100764.92;115127;1199;27226;-58
2021/03/25 05:53:50;;;;;;;91.23;40.97;;;;;;;4.55;75.79;100754.61;115277;1200;23123;-60
2021/03/25 05:56:28;;;;;;;97.75;46.25;;;;;;;4.58;75.97;100759.31;115544;1200;23151;-57
2021/03/25 05:58:59;;;;;;;91.80;45.55;;;;;;;4.59;75.92;100760.85;115289;1199;23096;-59
2021/03/25 06:01:50;;;;;;;93.33;45.93;;;;;;;4.61;76.05;100772.30;115263;1199;23098;-59
2021/03/25 06:04:23;;;;;;;98.87;48.93;;;;;;;4.63;76.11;100774.63;115294;1200;24965;-59
2021/03/25 06:07:11;;;;;;;97.95;47.80;;;;;;;4.62;75.94;100778.59;115368;1200;23243;-60
2021/03/25 06:09:59;;;;;;;99.70;49.60;;;;;;;4.62;76.13;100781.35;116821;1200;23105;-59
2021/03/25 06:12:41;;;;;;;109.95;58.75;;;;;;;4.63;76.04;100783.72;115552;1199;24684;-59
2021/03/25 06:15:24;;;;;;;96.75;49.85;;;;;;;4.63;76.05;100780.16;115312;1198;23335;-56
2021/03/25 06:18:14;;;;;;;93.57;45.30;;;;;;;4.63;76.01;100785.69;115425;1199;24778;-59
2021/03/25 06:21:03;;;;;;;90.55;43.18;;;;;;;4.64;76.15;100784.47;115479;1200;23247;-58
2021/03/25 06:23:49;;;;;;;86.60;42.17;;;;;;;4.65;76.00;100783.28;115448;1200;23106;-60
2021/03/25 06:26:30;;;;;;;85.30;42.37;;;;;;;4.69;76.02;100786.75;115408;1200;23121;-58
2021/03/25 06:29:03;;;;;;;82.73;39.80;;;;;;;4.72;75.91;100780.35;115537;1199;23162;-58
2021/03/25 06:31:53;;;;;;;88.15;38.95;;;;;;;4.70;75.91;100789.09;115385;1202;26463;-60
2021/03/25 06:34:29;;;;;;;77.33;37.85;;;;;;;4.72;76.02;100789.44;115345;1200;23099;-59
2021/03/25 06:37:11;;;;;;;79.80;38.97;;;;;;;4.76;76.24;100789.36;115366;1202;23561;-59
2021/03/25 06:39:45;;;;;;;75.20;36.85;;;;;;;4.80;76.20;100793.62;115443;1199;23679;-58
2021/03/25 06:42:21;;;;;;;86.70;39.00;;;;;;;4.83;76.06;100798.31;115371;1200;23901;-58
2021/03/25 06:44:56;;;;;;;87.40;41.55;;;;;;;4.85;75.94;100789.58;115822;1200;24762;-58
2021/03/25 06:47:39;;;;;;;86.20;42.20;;;;;;;4.88;75.99;100794.27;115397;1202;23129;-59
2021/03/25 06:50:13;;;;;;;94.40;43.10;;;;;;;4.90;76.05;100800.16;115590;1202;27434;-58
2021/03/25 06:52:43;;;;;;;93.80;44.70;;;;;;;4.94;76.12;100795.33;115361;1199;23099;-60
2021/03/25 06:55:17;;;;;;;94.27;42.97;;;;;;;5.00;75.97;100798.36;115422;1199;23104;-59
2021/03/25 06:57:53;;;;;;;83.17;41.43;;;;;;;5.06;76.26;100810.48;115210;1200;23278;-59
2021/03/25 07:00:26;;;;;;;85.63;39.27;;;;;;;5.12;76.21;100815.09;115049;1199;27316;-58
2021/03/25 07:03:42;;;;;;;84.40;40.70;;;;;;;5.18;76.27;100812.59;115509;1199;24911;-58
2021/03/25 07:06:40;;;;;;;80.65;39.15;;;;;;;5.24;76.03;100803.35;116448;1198;23224;-57
2021/03/25 07:09:43;;;;;;;88.23;42.07;;;;;;;5.31;76.01;100807.95;115537;1200;23500;-58
2021/03/25 07:12:24;;;;;;;78.20;38.93;;;;;;;5.38;75.76;100805.80;115545;1200;23105;-58
2021/03/25 07:14:54;;;;;;;83.47;38.83;;;;;;;5.44;75.72;100806.84;115095;1201;23204;-57
2021/03/25 07:17:36;;;;;;;76.87;36.77;;;;;;;5.52;75.72;100805.50;115195;1202;23247;-58
2021/03/25 07:20:21;;;;;;;81.90;37.55;;;;;;;5.63;75.98;100810.77;115011;1199;23119;-57
2021/03/25 07:23:03;;;;;;;86.13;39.30;;;;;;;5.72;75.38;100805.41;115156;1202;23243;-57
2021/03/25 07:25:34;;;;;;;84.37;39.17;;;;;;;5.81;75.40;100811.14;115112;1201;23214;-57
2021/03/25 07:28:12;;;;;;;82.33;40.50;;;;;;;5.90;75.40;100814.09;115082;1202;23389;-57
2021/03/25 07:30:46;;;;;;;82.75;39.55;;;;;;;6.01;75.04;100811.84;115133;1202;23105;-58
2021/03/25 07:33:18;;;;;;;81.57;38.73;;;;;;;6.13;74.68;100813.13;115133;1200;23093;-58
2021/03/25 07:35:49;;;;;;;79.70;39.40;;;;;;;6.22;74.84;100808.54;115149;1202;23246;-58
2021/03/25 07:38:30;;;;;;;81.15;38.15;;;;;;;6.32;74.53;100809.47;115334;1202;28266;-57
2021/03/25 07:41:11;;;;;;;77.17;37.90;;;;;;;6.40;74.41;100813.61;115110;1199;23172;-58
2021/03/25 07:43:56;;;;;;;78.07;36.97;;;;;;;6.48;74.28;100817.74;114862;1203;23204;-58
2021/03/25 07:46:30;;;;;;;79.53;38.30;;;;;;;6.59;74.47;100817.45;114933;1200;23098;-58
2021/03/25 07:49:07;;;;;;;80.23;39.37;;;;;;;6.68;74.04;100810.08;114978;1203;28361;-57
2021/03/25 07:51:45;;;;;;;80.80;41.00;;;;;;;6.75;74.11;100811.84;114829;1202;27221;-57
2021/03/25 07:54:18;;;;;;;78.70;37.70;;;;;;;6.86;73.63;100809.56;114842;1202;26980;-58
2021/03/25 07:57:11;;;;;;;80.95;39.40;;;;;;;6.93;73.58;100807.35;115146;1202;23205;-57
2021/03/25 07:59:44;;;;;;;87.17;41.60;;;;;;;7.06;73.79;100812.93;114742;1205;23120;-57
2021/03/25 08:02:30;;;;;;;80.50;39.37;;;;;;;7.17;73.10;100811.41;114745;1200;23189;-58
2021/03/25 08:08:38;;;;;;;72.25;36.68;;;;;;;7.40;72.57;100806.77;115087;1191;23319;-56
2021/03/25 08:11:13;;;;;;;85.70;41.20;;;;;;;7.44;72.79;100805.44;115009;1199;26073;-58
2021/03/25 08:13:50;;;;;;;76.67;38.33;;;;;;;7.55;72.79;100807.89;115024;1200;23243;-58
2021/03/25 08:16:21;;;;;;;78.00;38.60;;;;;;;7.62;72.74;100802.88;114975;1202;27390;-58
2021/03/25 08:19:06;;;;;;;75.00;37.40;;;;;;;7.71;72.45;100800.21;114975;1199;23106;-59
2021/03/25 08:21:56;;;;;;;71.90;35.90;;;;;;;7.79;72.23;100797.97;114866;1199;23109;-58
2021/03/25 08:24:58;;;;;;;73.50;38.00;;;;;;;7.83;72.40;100793.07;114996;1199;23173;-58
2021/03/25 08:27:49;;;;;;;74.07;38.07;;;;;;;7.93;72.39;100801.06;115187;1198;25121;-58
2021/03/25 08:30:48;;;;;;;79.80;40.15;;;;;;;8.02;72.10;100795.61;114846;1202;24750;-58
2021/03/25 08:33:30;;;;;;;68.07;35.00;;;;;;;8.13;71.80;100795.25;114949;1203;23106;-58
2021/03/25 08:36:10;;;;;;;72.95;36.15;;;;;;;8.25;71.82;100801.99;115080;1200;27386;-57
2021/03/25 08:39:13;;;;;;;80.90;38.13;;;;;;;8.35;71.85;100793.31;114944;1200;24725;-59
2021/03/25 08:42:11;;;;;;;73.40;37.55;;;;;;;8.46;71.69;100790.16;114925;1203;23115;-58
2021/03/25 08:45:02;;;;;;;74.90;36.70;;;;;;;8.59;71.21;100794.43;114777;1205;23125;-58
2021/03/25 08:47:40;;;;;;;66.90;36.45;;;;;;;8.70;71.31;100792.05;114952;1205;23100;-57
2021/03/25 08:50:40;;;;;;;76.85;39.20;;;;;;;8.76;71.15;100790.23;114761;1200;23111;-58
2021/03/25 08:53:41;;;;;;;70.77;38.67;;;;;;;8.89;71.00;100793.73;114831;1200;24590;-58
2021/03/25 08:56:32;;;;;;;79.60;40.17;;;;;;;8.99;70.89;100788.99;114877;1206;23690;-58
2021/03/25 08:59:09;;;;;;;77.70;39.23;;;;;;;9.07;70.89;100786.70;114690;1203;23128;-58
2021/03/25 09:01:46;;;;;;;78.53;39.77;;;;;;;9.15;70.50;100785.20;115165;1203;27355;-59
2021/03/25 09:04:20;;;;;;;78.53;40.37;;;;;;;9.24;70.41;100788.05;114625;1202;23112;-58
2021/03/25 09:06:52;;;;;;;80.25;40.45;;;;;;;9.31;71.00;100782.20;115071;1203;23154;-58
2021/03/25 09:09:44;;;;;;;82.25;42.20;;;;;;;9.44;70.75;100777.30;115457;1203;23129;-60
2021/03/25 09:12:20;;;;;;;76.00;40.70;;;;;;;9.61;70.50;100784.18;115479;1203;23256;-60
2021/03/25 09:14:51;;;;;;;85.55;43.40;;;;;;;9.70;70.33;100779.40;115026;1203;23376;-58
2021/03/25 09:17:24;;;;;;;79.60;41.40;;;;;;;9.84;70.56;100780.06;115064;1203;26010;-59
2021/03/25 09:19:58;;;;;;;69.80;39.73;;;;;;;9.94;70.14;100782.42;115158;1200;23176;-64
2021/03/25 09:22:42;;;;;;;78.90;40.90;;;;;;;10.04;69.82;100778.41;115221;1203;23131;-58
2021/03/25 09:25:46;;;;;;;73.13;39.50;;;;;;;10.13;69.46;100784.03;115334;1200;23115;-60
2021/03/25 09:28:19;;;;;;;76.60;41.10;;;;;;;10.21;68.52;100774.13;115480;1200;23099;-61
2021/03/25 09:31:13;;;;;;;69.15;38.25;;;;;;;10.27;68.16;100775.05;115372;1202;23102;-60
2021/03/25 09:33:55;;;;;;;76.43;38.93;;;;;;;10.34;67.98;100773.98;115596;1199;26032;-60
2021/03/25 09:36:44;;;;;;;76.77;39.77;;;;;;;10.40;68.96;100777.70;115532;1199;24776;-58
2021/03/25 09:39:26;;;;;;;81.33;42.43;;;;;;;10.49;68.04;100786.09;115615;1200;23106;-59
2021/03/25 09:41:57;;;;;;;75.90;42.00;;;;;;;10.55;67.79;100778.64;115675;1198;23102;-59
2021/03/25 09:44:37;;;;;;;79.30;40.10;;;;;;;10.64;67.65;100778.61;115814;1199;23166;-59
2021/03/25 09:47:37;;;;;;;75.65;38.55;;;;;;;10.73;67.25;100781.41;115609;1199;23870;-61
2021/03/25 09:50:19;;;;;;;80.55;42.95;;;;;;;10.78;66.60;100772.39;115724;1199;24191;-61
2021/03/25 09:53:05;;;;;;;80.27;41.50;;;;;;;10.82;66.89;100775.04;115655;1199;23094;-60
2021/03/25 09:55:39;;;;;;;78.30;42.25;;;;;;;10.88;67.00;100773.95;115646;1200;23247;-61
2021/03/25 09:58:45;;;;;;;85.67;45.77;;;;;;;10.93;66.61;100778.10;115775;1197;23541;-61
2021/03/25 10:01:46;;;;;;;78.03;41.77;;;;;;;10.98;66.05;100775.47;115942;1197;23099;-61
2021/03/25 10:04:35;;;;;;;74.25;40.55;;;;;;;11.04;66.09;100773.59;115778;1196;24752;-61
2021/03/25 10:07:35;;;;;;;82.10;42.70;;;;;;;11.13;66.22;100767.21;115705;1196;23132;-59
2021/03/25 10:10:32;;;;;;;79.98;40.90;;;;;;;11.18;65.61;100769.36;115580;1199;27524;-60
2021/03/25 10:13:35;;;;;;;81.20;43.93;;;;;;;11.21;65.80;100762.84;115379;1199;26256;-59
2021/03/25 10:16:07;;;;;;;80.10;43.05;;;;;;;11.27;64.86;100767.32;115398;1199;23365;-61
2021/03/25 10:19:01;;;;;;;76.37;41.70;;;;;;;11.28;65.21;100770.87;115514;1200;26316;-62
2021/03/25 10:22:04;;;;;;;71.00;38.57;;;;;;;11.34;65.07;100761.38;115426;1199;23120;-62
2021/03/25 10:24:39;;;;;;;69.10;38.30;;;;;;;11.43;64.45;100766.16;115691;1199;23096;-59
2021/03/25 10:27:22;;;;;;;69.30;38.53;;;;;;;11.48;64.25;100764.75;115533;1199;23173;-61
2021/03/25 10:29:51;;;;;;;79.70;42.20;;;;;;;11.48;64.11;100768.33;115470;1200;23234;-58
2021/03/25 10:32:27;;;;;;;73.27;39.27;;;;;;;11.50;64.35;100759.45;115363;1199;26275;-59
2021/03/25 10:35:00;;;;;;;72.60;39.17;;;;;;;11.58;64.58;100755.06;115495;1199;23725;-59
2021/03/25 10:37:36;;;;;;;73.35;40.75;;;;;;;11.64;63.98;100751.16;115462;1199;23100;-60
2021/03/25 10:40:15;;;;;;;82.70;43.60;;;;;;;11.65;64.40;100755.48;115329;1202;23114;-63
2021/03/25 10:42:53;;;;;;;73.48;40.40;;;;;;;11.68;64.31;100748.98;115448;1199;23172;-62
2021/03/25 10:45:27;;;;;;;75.97;40.90;;;;;;;11.77;63.68;100757.31;115268;1199;26393;-61
2021/03/25 10:48:00;;;;;;;72.33;38.40;;;;;;;11.87;63.68;100746.86;115438;1196;25518;-60
2021/03/25 10:50:37;;;;;;;70.13;38.43;;;;;;;11.95;63.46;100748.05;115864;1197;23143;-61
2021/03/25 10:53:11;;;;;;;68.33;38.27;;;;;;;12.00;63.20;100741.81;115561;1196;27348;-62
2021/03/25 10:55:43;;;;;;;75.55;40.80;;;;;;;12.02;63.10;100745.66;115668;1196;26020;-63
2021/03/25 10:58:23;;;;;;;74.30;40.20;;;;;;;12.02;62.70;100742.10;115585;1196;23111;-63
2021/03/25 11:01:02;;;;;;;75.23;41.88;;;;;;;12.07;62.38;100741.43;115546;1196;23549;-61
2021/03/25 11:03:36;;;;;;;71.20;39.65;;;;;;;12.11;62.50;100739.22;116188;1202;23134;-59
2021/03/25 11:06:07;;;;;;;68.50;37.43;;;;;;;12.18;62.79;100738.87;115513;1196;24322;-61
2021/03/25 11:08:40;;;;;;;73.55;38.20;;;;;;;12.25;62.75;100734.94;115535;1196;26393;-62
2021/03/25 11:11:15;;;;;;;70.25;39.00;;;;;;;12.29;62.10;100732.72;115613;1196;26123;-61
2021/03/25 11:13:54;;;;;;;72.20;40.47;;;;;;;12.22;61.91;100731.06;115652;1196;23083;-60
2021/03/25 11:16:24;;;;;;;71.30;41.65;;;;;;;12.17;61.98;100726.11;115622;1202;23129;-61
2021/03/25 11:18:56;;;;;;;;;;;;;;;12.17;62.32;100723.31;115673;1204;23119;-61
2021/03/25 11:21:35;;;;;;;67.90;37.70;;;;;;;12.25;61.51;100735.69;115474;1196;25966;-59
2021/03/25 11:24:13;;;;;;;74.85;41.90;;;;;;;12.22;60.44;100722.66;115628;1196;23122;-61
2021/03/25 11:26:46;;;;;;;74.63;40.37;;;;;;;12.16;61.61;100716.19;115639;1196;26233;-61
2021/03/25 11:29:18;;;;;;;73.17;40.00;;;;;;;12.14;60.85;100727.08;115596;1195;23121;-58
2021/03/25 11:31:47;;;;;;;68.43;38.80;;;;;;;12.13;61.13;100711.53;115643;1197;26445;-60
2021/03/25 11:34:26;;;;;;;72.37;39.23;;;;;;;12.16;60.34;100716.96;115762;1196;23102;-59
2021/03/25 11:36:56;;;;;;;67.10;36.65;;;;;;;12.17;60.16;100707.30;115615;1197;23254;-62
2021/03/25 11:39:27;;;;;;;;;;;;;;;12.15;59.89;100701.41;115695;1204;23139;-67
2021/03/25 11:41:56;;;;;;;;;;;;;;;12.18;60.54;100706.06;115363;1204;21652;-65
2021/03/25 11:44:52;;;;;;;66.30;37.20;;;;;;;12.25;60.76;100707.69;115792;1196;21604;-58
2021/03/25 11:47:33;;;;;;;70.70;39.35;;;;;;;12.31;60.05;100713.42;115485;1196;23170;-63
2021/03/25 11:50:08;;;;;;;68.43;36.70;;;;;;;12.35;60.26;100700.78;115722;1196;26036;-61
2021/03/25 11:52:48;;;;;;;70.55;38.00;;;;;;;12.45;59.51;100704.27;115586;1200;23244;-61
2021/03/25 11:55:21;;;;;;;;;;;;;;;12.47;59.11;100704.55;115727;1203;23199;-60
2021/03/25 11:57:52;;;;;;;67.45;36.20;;;;;;;12.50;58.81;100706.38;115674;1196;21676;-60